Archival Weather

Dewar Lakes

Dewar Lakes, Canada (CWUW)

Report from: Friday, May 26, 2023 10:00 AM EDT
Current time: Thursday, July 18, 2024 10:51 PM EDT

Current weather – Weather history – Daily summaries
Weather forecast

Present weatherSM
Temperature-14.0°C (6.8°F)
Wind chill-25.7°C (-14.3°F)
Dew point-16.0°C (3.2°F)
Winds 20 kts (10.3 m/s, 23 mph) West-Northwest (290°)
Visibility0 ft. (0 m)
Altimeter29.65 in.Hg (1004 mB)
Relative humidity85 %
Density altitude-3,310 ft. (-1,009 m)
Remarks Fully automated report
Flight conditions Low Instrument Meteorological Conditions
Raw dataCWUW 261400Z AUTO 29020KT ////SM ////// M14/M16 A2965
An error has occurred. This application may no longer respond until reloaded. Reload 🗙